Impacts TAF Board INFO
FOR SITUATIONAL AWARENESS. NOT TO BE USED FOR FLIGHT PLANNING PURPOSES.
IDs:

KPIT - Pittsburgh Intl, PA, US

Issued at 0250 UTC 15 Dec 2017
Updated at 0425 UTC 15 Dec 2017
Potential Impact None Slight Moderate High
Time<<16/05Z 16/06Z 16/07Z 16/08Z 16/09Z 16/10Z 16/11Z 16/12Z 16/13Z 16/14Z 16/15Z 16/16Z 16/17Z
Type PRVL
VIS >6
CIG 50
Cover OVC
FltCat VFR
WX VCSH
WDir 230
WSpd 6
WGst --

Raw TAF
KPIT 150250Z 1503/1606 29003KT P6SM SCT035
  FM151400 21003KT P6SM BKN080
  FM151700 23006KT P6SM VCSH OVC050


METAR Board
Radar Display
Forecast Discussion

FOR SITUATIONAL AWARENESS. NOT TO BE USED FOR FLIGHT PLANNING PURPOSES.